This is the latest recevied weather packets stored in our database for station/object W2GUX. If no packets are shown the sender has not sent any weather packets the latest 10 day(s).
| Time | Temp. | Humidity | Pressure | Rain* | Wind** | Luminosity | Snow |
|---|---|---|---|---|---|---|---|
| 1777654203 | 17.22° C | 28% | 1008.6 hPa | 0 mm | - | - | - |
| 1777653904 | 17.22° C | 28% | 1008.8 hPa | 0 mm | - | - | - |
| 1777653603 | 17.22° C | 31% | 1008.8 hPa | 0 mm | - | - | - |
| 1777653304 | 17.22° C | 27% | 1009 hPa | 0 mm | - | - | - |
| 1777653004 | 17.22° C | 29% | 1009 hPa | 0 mm | - | - | - |
| 1777652703 | 17.22° C | 29% | 1009.1 hPa | 0 mm | - | - | - |
| 1777652404 | 17.22° C | 29% | 1009.1 hPa | 0 mm | - | - | - |
| 1777652104 | 17.22° C | 29% | 1009.1 hPa | 0 mm | - | - | - |
| 1777651803 | 16.67° C | 30% | 1009.1 hPa | 0 mm | - | - | - |
| 1777651503 | 16.67° C | 28% | 1009.2 hPa | 0 mm | - | - | - |
| 1777650904 | 16.67° C | 31% | 1009.2 hPa | 0 mm | - | - | - |
| 1777650604 | 16.11° C | 31% | 1009.3 hPa | 0 mm | - | - | - |
| 1777650304 | 15.56° C | 32% | 1009.4 hPa | 0 mm | - | - | - |
| 1777650004 | 15.56° C | 32% | 1009.6 hPa | 0 mm | - | - | - |
| 1777649704 | 15.56° C | 32% | 1009.7 hPa | 0 mm | - | - | - |
| 1777649403 | 15° C | 33% | 1009.7 hPa | 0 mm | - | - | - |
| 1777649103 | 15° C | 32% | 1009.8 hPa | 0 mm | - | - | - |
| 1777648804 | 15° C | 30% | 1009.9 hPa | 0 mm | - | - | - |
| 1777648503 | 15.56° C | 31% | 1010 hPa | 0 mm | - | - | - |
| 1777648204 | 15.56° C | 31% | 1009.9 hPa | 0 mm | - | - | - |
| 1777647904 | 15.56° C | 34% | 1009.8 hPa | 0 mm | - | - | - |
| 1777647604 | 15° C | 35% | 1009.9 hPa | 0 mm | - | - | - |
| 1777647304 | 14.44° C | 36% | 1009.8 hPa | 0 mm | - | - | - |
| 1777647004 | 14.44° C | 36% | 1009.8 hPa | 0 mm | - | - | - |
| 1777646704 | 14.44° C | 38% | 1009.9 hPa | 0 mm | - | - | - |
* Rain latest hour (hover to see other rain measurements)
** Current wind speed in m/s (hover to see current wind gust speed)